Time;durP1;ratioP1;P1;durP2;ratioP2;P2;SDS_P1;SDS_P2;PMS_P1;PMS_P2;Temp;Humidity;BMP_temperature;BMP_pressure;BME280_temperature;BME280_humidity;BME280_pressure;Samples;Min_cycle;Max_cycle;Signal;HPM_P1;HPM_P2
2022/11/23 01:24:06;;;;;;;;;;;;;;;;;;5733020;22;19936;-82
2022/11/23 01:40:10;;;;;;;;;;;;;;;;;;5797027;22;19951;-83
2022/11/23 01:45:19;;;;;;;;;;;;;;;;;;5360538;22;19946;-83
2022/11/23 01:50:30;;;;;;;;;;;;;;;;;;5098139;28;19959;-82
2022/11/23 01:52:57;;;;;;;;;;;;;;;;;;5079865;28;19935;-82
2022/11/23 01:55:26;;;;;;;;;;;;;;;;;;5078783;28;19940;-82
2022/11/23 01:57:53;;;;;;;;;;;;;;;;;;5093656;28;19908;-81
2022/11/23 02:00:19;;;;;;;;;;;;;;;;;;5072086;28;19915;-80
2022/11/23 02:02:45;;;;;;;;;;;;;;;;;;5073003;28;20319;-82
2022/11/23 02:05:11;;;;;;;;;;;;;;;;;;5072162;28;19908;-82
2022/11/23 02:07:38;;;;;;;;;;;;;;;;;;5087744;28;19955;-82
2022/11/23 02:10:07;;;;;;;;;;;;;;;;;;5068682;28;19916;-81
2022/11/23 02:12:33;;;;;;;;;;;;;;;;;;5084695;28;19915;-81
2022/11/23 02:14:59;;;;;;;;;;;;;;;;;;5082883;28;19932;-82
2022/11/23 02:17:25;;;;;;;;;;;;;;;;;;5064531;28;19908;-81
2022/11/23 02:19:51;;;;;;;;;;;;;;;;;;5062457;28;20003;-81
2022/11/23 02:22:17;;;;;;;;;;;;;;;;;;5059775;28;20005;-80
2022/11/23 02:24:43;;;;;;;;;;;;;;;;;;5076272;28;19908;-81
2022/11/23 02:27:09;;;;;;;;;;;;;;;;;;5058176;28;20284;-80
2022/11/23 02:29:35;;;;;;;;;;;;;;;;;;5075452;28;19920;-80
2022/11/23 02:32:01;;;;;;;;;;;;;;;;;;5057202;28;20434;-81
2022/11/23 02:34:27;;;;;;;;;;;;;;;;;;5057354;28;19981;-81
2022/11/23 02:36:53;;;;;;;;;;;;;;;;;;5057682;28;20384;-81
2022/11/23 02:39:19;;;;;;;;;;;;;;;;;;5056888;28;19909;-80
2022/11/23 02:41:45;;;;;;;;;;;;;;;;;;5057329;28;19908;-80
2022/11/23 02:44:10;;;;;;;;;;;;;;;;;;5055775;28;19908;-80
2022/11/23 02:46:36;;;;;;;;;;;;;;;;;;5074803;28;20372;-80
2022/11/23 02:49:02;;;;;;;;;;;;;;;;;;5074523;28;19920;-79
2022/11/23 02:51:28;;;;;;;;;;;;;;;;;;5056473;28;19915;-80
2022/11/23 02:53:54;;;;;;;;;;;;;;;;;;5056167;28;19909;-79
2022/11/23 02:56:20;;;;;;;;;;;;;;;;;;5056371;28;19915;-80
2022/11/23 02:58:46;;;;;;;;;;;;;;;;;;5056751;28;19908;-80
2022/11/23 03:01:12;;;;;;;;;;;;;;;;;;5074295;28;19908;-79
2022/11/23 03:03:38;;;;;;;;;;;;;;;;;;5056343;28;20400;-80
2022/11/23 03:06:04;;;;;;;;;;;;;;;;;;5056293;28;19912;-80
2022/11/23 03:08:30;;;;;;;;;;;;;;;;;;5056297;28;20340;-80
2022/11/23 03:10:56;;;;;;;;;;;;;;;;;;5055906;28;19956;-80
2022/11/23 03:13:22;;;;;;;;;;;;;;;;;;5056248;28;19924;-80
2022/11/23 03:15:48;;;;;;;;;;;;;;;;;;5056005;28;19919;-81
2022/11/23 03:18:14;;;;;;;;;;;;;;;;;;5055711;28;19909;-80
2022/11/23 03:20:40;;;;;;;;;;;;;;;;;;5055979;28;19909;-80
2022/11/23 03:23:06;;;;;;;;;;;;;;;;;;5056233;28;19916;-81
2022/11/23 03:25:32;;;;;;;;;;;;;;;;;;5056330;28;19931;-80
2022/11/23 03:27:58;;;;;;;;;;;;;;;;;;5074294;28;19919;-81
2022/11/23 03:30:24;;;;;;;;;;;;;;;;;;5074030;28;19914;-80
2022/11/23 03:32:49;;;;;;;;;;;;;;;;;;5074266;28;19916;-79
2022/11/23 03:35:15;;;;;;;;;;;;;;;;;;5073966;28;19958;-79
2022/11/23 03:37:41;;;;;;;;;;;;;;;;;;5059541;28;20007;-80
2022/11/23 03:40:07;;;;;;;;;;;;;;;;;;5059931;28;19913;-80
2022/11/23 03:42:33;;;;;;;;;;;;;;;;;;5059523;28;20381;-80
2022/11/23 03:44:59;;;;;;;;;;;;;;;;;;5059512;28;19916;-80
2022/11/23 03:47:25;;;;;;;;;;;;;;;;;;5077427;28;19912;-80
2022/11/23 03:49:51;;;;;;;;;;;;;;;;;;5059127;28;19912;-80
2022/11/23 03:52:17;;;;;;;;;;;;;;;;;;5076643;28;19908;-80
2022/11/23 03:54:43;;;;;;;;;;;;;;;;;;5059416;28;19911;-80
2022/11/23 03:57:09;;;;;;;;;;;;;;;;;;5059760;28;20366;-80
2022/11/23 03:59:35;;;;;;;;;;;;;;;;;;5059270;28;19905;-80
2022/11/23 04:02:01;;;;;;;;;;;;;;;;;;5059287;28;20000;-80
2022/11/23 04:04:27;;;;;;;;;;;;;;;;;;5059690;28;19940;-81
2022/11/23 04:06:53;;;;;;;;;;;;;;;;;;5059423;28;19916;-80
2022/11/23 04:09:19;;;;;;;;;;;;;;;;;;5059739;28;19919;-81
2022/11/23 04:11:45;;;;;;;;;;;;;;;;;;5059793;28;19909;-81
2022/11/23 04:14:11;;;;;;;;;;;;;;;;;;5059278;28;19908;-82
2022/11/23 04:16:37;;;;;;;;;;;;;;;;;;5059167;28;20373;-81
2022/11/23 04:19:02;;;;;;;;;;;;;;;;;;5077428;28;19909;-80
2022/11/23 04:21:28;;;;;;;;;;;;;;;;;;5078241;28;19931;-80
2022/11/23 04:23:54;;;;;;;;;;;;;;;;;;5078281;28;19909;-82
2022/11/23 04:26:20;;;;;;;;;;;;;;;;;;5060993;28;19999;-81
2022/11/23 04:28:46;;;;;;;;;;;;;;;;;;5061131;28;20361;-82
2022/11/23 04:31:12;;;;;;;;;;;;;;;;;;5062249;28;19916;-82
2022/11/23 04:33:38;;;;;;;;;;;;;;;;;;5062331;28;19908;-81
2022/11/23 04:36:04;;;;;;;;;;;;;;;;;;5062693;28;19914;-80
2022/11/23 04:38:30;;;;;;;;;;;;;;;;;;5062073;28;19916;-81
2022/11/23 04:40:56;;;;;;;;;;;;;;;;;;5062031;28;19930;-82
2022/11/23 04:43:22;;;;;;;;;;;;;;;;;;5061647;28;19915;-81
2022/11/23 04:45:48;;;;;;;;;;;;;;;;;;5061497;28;20007;-81
2022/11/23 04:48:14;;;;;;;;;;;;;;;;;;5062372;28;20337;-82
2022/11/23 04:50:41;;;;;;;;;;;;;;;;;;5075301;28;19900;-80
2022/11/23 04:53:07;;;;;;;;;;;;;;;;;;5086609;22;19924;-81
2022/11/23 04:55:33;;;;;;;;;;;;;;;;;;5057261;28;19919;-80
2022/11/23 04:57:59;;;;;;;;;;;;;;;;;;5057131;28;19912;-80
2022/11/23 05:00:25;;;;;;;;;;;;;;;;;;5074737;28;19908;-81
2022/11/23 05:02:51;;;;;;;;;;;;;;;;;;5056877;28;19916;-81
2022/11/23 05:05:17;;;;;;;;;;;;;;;;;;5074414;28;19908;-80
2022/11/23 05:07:43;;;;;;;;;;;;;;;;;;5056632;28;19963;-80
2022/11/23 05:10:08;;;;;;;;;;;;;;;;;;5056580;28;19913;-80
2022/11/23 05:12:35;;;;;;;;;;;;;;;;;;5056553;28;19915;-81
2022/11/23 05:15:01;;;;;;;;;;;;;;;;;;5074508;28;20003;-80
2022/11/23 05:17:27;;;;;;;;;;;;;;;;;;5074466;28;20418;-80
2022/11/23 05:19:55;;;;;;;;;;;;;;;;;;5056600;28;19912;-80
2022/11/23 05:22:21;;;;;;;;;;;;;;;;;;5056755;28;19915;-80
2022/11/23 05:24:47;;;;;;;;;;;;;;;;;;5056454;28;19908;-80
2022/11/23 05:27:12;;;;;;;;;;;;;;;;;;5056557;28;20297;-81
2022/11/23 05:29:38;;;;;;;;;;;;;;;;;;5056472;28;19912;-80
2022/11/23 05:32:04;;;;;;;;;;;;;;;;;;5056291;28;19908;-81
2022/11/23 05:34:30;;;;;;;;;;;;;;;;;;5074278;28;19913;-81
2022/11/23 05:36:56;;;;;;;;;;;;;;;;;;5056362;28;19908;-81
2022/11/23 05:39:22;;;;;;;;;;;;;;;;;;5056354;28;19943;-80
2022/11/23 05:41:48;;;;;;;;;;;;;;;;;;5056277;28;19983;-80
2022/11/23 05:44:14;;;;;;;;;;;;;;;;;;5073948;28;19913;-80
2022/11/23 05:46:40;;;;;;;;;;;;;;;;;;5055991;28;20338;-80
2022/11/23 05:49:05;;;;;;;;;;;;;;;;;;5055812;28;19915;-79
2022/11/23 05:51:31;;;;;;;;;;;;;;;;;;5055895;28;19909;-81
2022/11/23 05:53:57;;;;;;;;;;;;;;;;;;5073849;28;19916;-80
2022/11/23 05:56:23;;;;;;;;;;;;;;;;;;5055912;28;20273;-79
2022/11/23 05:58:49;;;;;;;;;;;;;;;;;;5055389;28;20269;-80
2022/11/23 06:01:15;;;;;;;;;;;;;;;;;;5055129;28;19916;-80
2022/11/23 06:03:41;;;;;;;;;;;;;;;;;;5073638;28;20284;-80
2022/11/23 06:06:07;;;;;;;;;;;;;;;;;;5073524;28;19998;-80
2022/11/23 06:08:33;;;;;;;;;;;;;;;;;;5055522;28;19912;-80
2022/11/23 06:10:58;;;;;;;;;;;;;;;;;;5073579;28;19913;-80
2022/11/23 06:13:24;;;;;;;;;;;;;;;;;;5073288;28;19908;-79
2022/11/23 06:15:50;;;;;;;;;;;;;;;;;;5055339;28;20008;-81
2022/11/23 06:18:16;;;;;;;;;;;;;;;;;;5055194;28;19909;-80
2022/11/23 06:20:42;;;;;;;;;;;;;;;;;;5055380;28;19955;-79
2022/11/23 06:23:08;;;;;;;;;;;;;;;;;;5055106;28;19958;-79
2022/11/23 06:25:34;;;;;;;;;;;;;;;;;;5073255;28;19916;-80
2022/11/23 06:28:00;;;;;;;;;;;;;;;;;;5055087;28;20002;-80
2022/11/23 06:30:26;;;;;;;;;;;;;;;;;;5054994;28;19912;-80
2022/11/23 06:32:51;;;;;;;;;;;;;;;;;;5073116;28;20345;-80
2022/11/23 06:35:17;;;;;;;;;;;;;;;;;;5055355;28;19908;-78
2022/11/23 06:37:43;;;;;;;;;;;;;;;;;;5072945;28;19978;-79
2022/11/23 06:40:09;;;;;;;;;;;;;;;;;;5073571;28;19908;-81
2022/11/23 06:42:35;;;;;;;;;;;;;;;;;;5073366;28;19915;-78
2022/11/23 06:45:01;;;;;;;;;;;;;;;;;;5056319;28;19908;-78
2022/11/23 06:47:27;;;;;;;;;;;;;;;;;;5055885;28;19912;-80
2022/11/23 06:49:53;;;;;;;;;;;;;;;;;;5054630;28;19969;-78
2022/11/23 06:52:18;;;;;;;;;;;;;;;;;;5053806;28;19913;-79
2022/11/23 06:54:44;;;;;;;;;;;;;;;;;;5072377;28;19908;-79
2022/11/23 06:57:10;;;;;;;;;;;;;;;;;;5072632;28;19905;-79
2022/11/23 06:59:36;;;;;;;;;;;;;;;;;;5054501;28;19908;-79
2022/11/23 07:02:02;;;;;;;;;;;;;;;;;;5054602;28;20442;-79
2022/11/23 07:04:28;;;;;;;;;;;;;;;;;;5072396;28;19954;-79
2022/11/23 07:06:54;;;;;;;;;;;;;;;;;;5054383;28;20384;-79
2022/11/23 07:09:20;;;;;;;;;;;;;;;;;;5054231;28;19912;-79
2022/11/23 07:11:45;;;;;;;;;;;;;;;;;;5056692;28;20292;-78
2022/11/23 07:14:11;;;;;;;;;;;;;;;;;;5058416;28;20011;-80
2022/11/23 07:16:37;;;;;;;;;;;;;;;;;;5076329;28;19908;-79
2022/11/23 07:19:03;;;;;;;;;;;;;;;;;;5058440;28;19909;-79
2022/11/23 07:21:29;;;;;;;;;;;;;;;;;;5076214;28;19909;-79
2022/11/23 07:23:55;;;;;;;;;;;;;;;;;;5076152;28;19908;-79
2022/11/23 07:26:21;;;;;;;;;;;;;;;;;;5064400;28;19920;-79
2022/11/23 07:28:47;;;;;;;;;;;;;;;;;;5076150;28;19979;-80
2022/11/23 07:31:14;;;;;;;;;;;;;;;;;;5058002;28;20341;-79
2022/11/23 07:33:41;;;;;;;;;;;;;;;;;;5058031;28;20295;-79
2022/11/23 07:36:07;;;;;;;;;;;;;;;;;;5057984;28;19908;-79
2022/11/23 07:38:33;;;;;;;;;;;;;;;;;;5075588;28;19909;-79
2022/11/23 07:41:00;;;;;;;;;;;;;;;;;;5057823;28;19958;-79
2022/11/23 07:43:26;;;;;;;;;;;;;;;;;;5075820;28;20319;-79
2022/11/23 07:45:52;;;;;;;;;;;;;;;;;;5058051;28;19908;-80
2022/11/23 07:48:18;;;;;;;;;;;;;;;;;;5057726;28;19908;-79
2022/11/23 07:50:44;;;;;;;;;;;;;;;;;;5057224;28;20438;-80
2022/11/23 07:53:09;;;;;;;;;;;;;;;;;;5057798;28;19923;-79
2022/11/23 07:55:35;;;;;;;;;;;;;;;;;;5057632;28;20004;-79
2022/11/23 07:58:01;;;;;;;;;;;;;;;;;;5057726;28;19908;-79
2022/11/23 08:00:27;;;;;;;;;;;;;;;;;;5075472;28;19915;-79
2022/11/23 08:02:53;;;;;;;;;;;;;;;;;;5075357;28;19912;-79
2022/11/23 08:05:19;;;;;;;;;;;;;;;;;;5075302;28;20402;-79
2022/11/23 08:07:45;;;;;;;;;;;;;;;;;;5075153;28;19963;-79
2022/11/23 08:10:11;;;;;;;;;;;;;;;;;;5057134;28;19919;-79
2022/11/23 08:12:37;;;;;;;;;;;;;;;;;;5057322;28;19959;-80
2022/11/23 08:15:02;;;;;;;;;;;;;;;;;;5057142;28;20422;-79
2022/11/23 08:17:28;;;;;;;;;;;;;;;;;;5075002;28;19908;-80
2022/11/23 08:19:54;;;;;;;;;;;;;;;;;;5057260;28;20356;-79
2022/11/23 08:22:21;;;;;;;;;;;;;;;;;;5056151;28;20011;-79
2022/11/23 08:24:47;;;;;;;;;;;;;;;;;;5057030;28;20018;-79
2022/11/23 08:27:13;;;;;;;;;;;;;;;;;;5075045;28;20391;-80
2022/11/23 08:29:39;;;;;;;;;;;;;;;;;;5056867;28;19913;-80
2022/11/23 08:32:04;;;;;;;;;;;;;;;;;;5061401;28;20360;-80
2022/11/23 08:34:30;;;;;;;;;;;;;;;;;;5063317;28;19916;-80
2022/11/23 08:36:56;;;;;;;;;;;;;;;;;;5080740;28;20372;-80
2022/11/23 08:39:22;;;;;;;;;;;;;;;;;;5061896;28;19917;-79
2022/11/23 08:41:48;;;;;;;;;;;;;;;;;;5056870;28;19916;-79
2022/11/23 08:44:14;;;;;;;;;;;;;;;;;;5056731;28;20483;-79
2022/11/23 08:46:40;;;;;;;;;;;;;;;;;;5056653;28;20003;-79
2022/11/23 08:49:06;;;;;;;;;;;;;;;;;;5056502;28;19909;-79
2022/11/23 08:51:32;;;;;;;;;;;;;;;;;;5056004;28;20011;-80
2022/11/23 08:53:58;;;;;;;;;;;;;;;;;;5074444;28;20392;-80
2022/11/23 08:56:23;;;;;;;;;;;;;;;;;;5056351;28;19908;-78
2022/11/23 08:58:49;;;;;;;;;;;;;;;;;;5074256;28;20016;-79
2022/11/23 09:01:15;;;;;;;;;;;;;;;;;;5074204;28;19912;-79
2022/11/23 09:03:41;;;;;;;;;;;;;;;;;;5056069;28;20269;-79
2022/11/23 09:06:07;;;;;;;;;;;;;;;;;;5056292;28;19909;-79
2022/11/23 09:08:33;;;;;;;;;;;;;;;;;;5056308;28;20004;-79
2022/11/23 09:10:59;;;;;;;;;;;;;;;;;;5062695;28;20371;-82
2022/11/23 09:16:06;;;;;;;;;;;;;;;;;;5075381;28;19915;-80
2022/11/23 09:18:34;;;;;;;;;;;;;;;;;;5059283;28;19909;-82
2022/11/23 09:21:00;;;;;;;;;;;;;;;;;;5063660;28;19953;-82
2022/11/23 09:23:26;;;;;;;;;;;;;;;;;;5082665;28;19963;-82
2022/11/23 09:25:52;;;;;;;;;;;;;;;;;;5083129;28;19908;-82
2022/11/23 09:28:23;;;;;;;;;;;;;;;;;;5082755;28;19948;-82
2022/11/23 09:30:49;;;;;;;;;;;;;;;;;;5064200;28;19912;-82
2022/11/23 09:33:15;;;;;;;;;;;;;;;;;;5064438;28;19932;-82
2022/11/23 09:35:41;;;;;;;;;;;;;;;;;;5063843;28;19909;-82
2022/11/23 09:38:07;;;;;;;;;;;;;;;;;;5065399;28;19908;-82
2022/11/23 09:40:33;;;;;;;;;;;;;;;;;;5083087;28;19912;-82
2022/11/23 09:42:59;;;;;;;;;;;;;;;;;;5084700;28;19916;-82
2022/11/23 09:45:25;;;;;;;;;;;;;;;;;;5068718;28;19963;-82
2022/11/23 09:47:51;;;;;;;;;;;;;;;;;;5087787;28;19908;-82
2022/11/23 09:50:17;;;;;;;;;;;;;;;;;;5088543;28;19912;-82
2022/11/23 09:52:42;;;;;;;;;;;;;;;;;;5071631;28;19928;-82
2022/11/23 09:55:13;;;;;;;;;;;;;;;;;;5052348;28;22029;-82
2022/11/23 09:57:40;;;;;;;;;;;;;;;;;;5070125;28;20366;-82
2022/11/23 10:00:09;;;;;;;;;;;;;;;;;;5086221;28;19968;-83
2022/11/23 10:02:57;;;;;;;;;;;;;;;;;;5074673;28;19931;-82
2022/11/23 10:05:44;;;;;;;;;;;;;;;;;;5087293;28;19904;-82
2022/11/23 10:08:12;;;;;;;;;;;;;;;;;;5069326;28;19940;-82
2022/11/23 10:10:59;;;;;;;;;;;;;;;;;;5085874;28;20107;-82
2022/11/23 10:16:17;;;;;;;;;;;;;;;;;;5080448;28;19924;-83
2022/11/23 10:18:42;;;;;;;;;;;;;;;;;;5089037;28;19908;-82
2022/11/23 10:21:08;;;;;;;;;;;;;;;;;;5089364;28;19912;-82
2022/11/23 10:23:34;;;;;;;;;;;;;;;;;;5089271;28;19915;-82
2022/11/23 10:26:00;;;;;;;;;;;;;;;;;;5089369;28;19932;-82
2022/11/23 10:28:26;;;;;;;;;;;;;;;;;;5098720;22;19909;-79
2022/11/23 10:30:52;;;;;;;;;;;;;;;;;;5076562;28;19943;-79
2022/11/23 10:33:18;;;;;;;;;;;;;;;;;;5076047;28;19908;-79
2022/11/23 10:35:44;;;;;;;;;;;;;;;;;;5077423;28;19908;-81
2022/11/23 10:38:10;;;;;;;;;;;;;;;;;;5076455;28;19919;-79
2022/11/23 10:40:36;;;;;;;;;;;;;;;;;;5077489;28;19909;-78
2022/11/23 10:43:02;;;;;;;;;;;;;;;;;;5077701;28;19963;-79
2022/11/23 10:45:28;;;;;;;;;;;;;;;;;;5075861;28;19909;-79
2022/11/23 10:47:54;;;;;;;;;;;;;;;;;;5076939;28;19967;-79
2022/11/23 10:50:20;;;;;;;;;;;;;;;;;;5076948;28;19916;-80
2022/11/23 10:52:46;;;;;;;;;;;;;;;;;;5075942;28;19931;-79
2022/11/23 10:55:12;;;;;;;;;;;;;;;;;;5076590;28;19909;-79
2022/11/23 10:57:38;;;;;;;;;;;;;;;;;;5075354;28;19951;-79
2022/11/23 11:00:04;;;;;;;;;;;;;;;;;;5077401;28;20370;-78
2022/11/23 11:02:30;;;;;;;;;;;;;;;;;;5077055;28;19912;-78
2022/11/23 11:04:56;;;;;;;;;;;;;;;;;;5077037;28;19909;-78
2022/11/23 11:07:22;;;;;;;;;;;;;;;;;;5076922;28;20364;-78
2022/11/23 11:09:48;;;;;;;;;;;;;;;;;;5076703;28;19919;-79
2022/11/23 11:12:14;;;;;;;;;;;;;;;;;;5077414;28;19908;-79
2022/11/23 11:14:40;;;;;;;;;;;;;;;;;;5075621;28;19912;-78
2022/11/23 11:17:06;;;;;;;;;;;;;;;;;;5076410;28;19932;-78
2022/11/23 11:19:32;;;;;;;;;;;;;;;;;;5076660;28;20487;-80
2022/11/23 11:21:57;;;;;;;;;;;;;;;;;;5076415;28;19908;-80
2022/11/23 11:24:23;;;;;;;;;;;;;;;;;;5076013;28;19909;-79
2022/11/23 11:26:49;;;;;;;;;;;;;;;;;;5075409;28;19908;-80
2022/11/23 11:29:15;;;;;;;;;;;;;;;;;;5075151;28;19916;-79
2022/11/23 11:31:41;;;;;;;;;;;;;;;;;;5076235;28;19909;-79
2022/11/23 11:34:07;;;;;;;;;;;;;;;;;;5075047;28;19916;-79
2022/11/23 11:36:33;;;;;;;;;;;;;;;;;;5076053;28;19916;-78
2022/11/23 11:38:59;;;;;;;;;;;;;;;;;;5076385;28;19913;-80
2022/11/23 11:41:25;;;;;;;;;;;;;;;;;;5075054;28;19915;-78
2022/11/23 11:43:51;;;;;;;;;;;;;;;;;;5076151;28;20062;-78
2022/11/23 11:46:16;;;;;;;;;;;;;;;;;;5074141;28;19970;-80
2022/11/23 11:48:42;;;;;;;;;;;;;;;;;;5075491;28;19910;-79
2022/11/23 11:51:08;;;;;;;;;;;;;;;;;;5076621;28;19947;-79
2022/11/23 11:53:34;;;;;;;;;;;;;;;;;;5077065;28;19909;-78
2022/11/23 11:56:00;;;;;;;;;;;;;;;;;;5076327;28;19912;-78
2022/11/23 11:58:26;;;;;;;;;;;;;;;;;;5077680;28;20281;-78
2022/11/23 12:00:52;;;;;;;;;;;;;;;;;;5080115;28;19909;-79
2022/11/23 12:03:18;;;;;;;;;;;;;;;;;;5079718;28;19908;-78
2022/11/23 12:05:44;;;;;;;;;;;;;;;;;;5080732;28;20373;-78
2022/11/23 12:08:10;;;;;;;;;;;;;;;;;;5081232;28;19908;-77
2022/11/23 12:10:35;;;;;;;;;;;;;;;;;;5079992;28;20360;-77
2022/11/23 12:13:01;;;;;;;;;;;;;;;;;;5079566;28;19915;-78
2022/11/23 12:15:27;;;;;;;;;;;;;;;;;;5081382;28;19916;-79
2022/11/23 12:17:53;;;;;;;;;;;;;;;;;;5080730;28;20442;-78
2022/11/23 12:20:19;;;;;;;;;;;;;;;;;;5079255;28;19954;-78
2022/11/23 12:22:45;;;;;;;;;;;;;;;;;;5080627;28;20380;-78
2022/11/23 12:25:11;;;;;;;;;;;;;;;;;;5079380;28;19972;-78
2022/11/23 12:27:37;;;;;;;;;;;;;;;;;;5079793;28;19908;-78
2022/11/23 12:30:03;;;;;;;;;;;;;;;;;;5080321;28;19916;-77
2022/11/23 12:32:29;;;;;;;;;;;;;;;;;;5079623;28;19995;-77
2022/11/23 12:34:55;;;;;;;;;;;;;;;;;;5078436;28;19948;-78
2022/11/23 12:37:21;;;;;;;;;;;;;;;;;;5076687;28;19934;-76
2022/11/23 12:39:48;;;;;;;;;;;;;;;;;;5077305;28;19909;-77
2022/11/23 12:42:14;;;;;;;;;;;;;;;;;;5078398;28;19932;-78
2022/11/23 12:44:40;;;;;;;;;;;;;;;;;;5076786;28;19912;-79
2022/11/23 12:47:06;;;;;;;;;;;;;;;;;;5076755;28;19913;-77
2022/11/23 12:49:32;;;;;;;;;;;;;;;;;;5077484;28;20015;-77
2022/11/23 12:51:58;;;;;;;;;;;;;;;;;;5076846;28;19930;-78
2022/11/23 12:54:24;;;;;;;;;;;;;;;;;;5077377;28;20300;-78
2022/11/23 12:56:49;;;;;;;;;;;;;;;;;;5074559;28;19908;-76
2022/11/23 12:59:15;;;;;;;;;;;;;;;;;;5074708;28;19908;-77
2022/11/23 13:01:41;;;;;;;;;;;;;;;;;;5077136;28;20007;-76
2022/11/23 13:04:10;;;;;;;;;;;;;;;;;;5075542;28;19952;-77
2022/11/23 13:06:37;;;;;;;;;;;;;;;;;;5074767;28;19909;-77
2022/11/23 13:09:03;;;;;;;;;;;;;;;;;;5074547;28;19943;-79
2022/11/23 13:11:29;;;;;;;;;;;;;;;;;;5076365;28;19912;-78
2022/11/23 13:13:58;;;;;;;;;;;;;;;;;;5074078;28;19908;-77
2022/11/23 13:16:24;;;;;;;;;;;;;;;;;;5073246;28;19978;-74
2022/11/23 13:18:49;;;;;;;;;;;;;;;;;;5075157;28;19912;-77
2022/11/23 13:21:15;;;;;;;;;;;;;;;;;;5073972;28;19908;-75
2022/11/23 13:23:41;;;;;;;;;;;;;;;;;;5073345;28;19909;-76
2022/11/23 13:26:07;;;;;;;;;;;;;;;;;;5072886;28;19932;-77
2022/11/23 13:28:33;;;;;;;;;;;;;;;;;;5075618;28;19908;-78
2022/11/23 13:30:59;;;;;;;;;;;;;;;;;;5076582;28;19999;-79
2022/11/23 13:33:25;;;;;;;;;;;;;;;;;;5074385;28;19915;-76
2022/11/23 13:35:51;;;;;;;;;;;;;;;;;;5072723;28;19916;-76
2022/11/23 13:38:17;;;;;;;;;;;;;;;;;;5073058;28;20352;-77
2022/11/23 13:40:42;;;;;;;;;;;;;;;;;;5075171;28;19962;-75
2022/11/23 13:43:08;;;;;;;;;;;;;;;;;;5074546;28;19904;-77
2022/11/23 13:45:37;;;;;;;;;;;;;;;;;;5073166;28;20384;-76
2022/11/23 13:48:03;;;;;;;;;;;;;;;;;;5074327;28;20388;-76
2022/11/23 13:50:29;;;;;;;;;;;;;;;;;;5072656;28;19919;-76
2022/11/23 13:52:55;;;;;;;;;;;;;;;;;;5074368;28;19913;-77
2022/11/23 13:55:21;;;;;;;;;;;;;;;;;;5073705;28;20008;-76
2022/11/23 13:57:47;;;;;;;;;;;;;;;;;;5074215;28;19916;-75
2022/11/23 14:00:13;;;;;;;;;;;;;;;;;;5072574;28;19908;-76
2022/11/23 14:02:39;;;;;;;;;;;;;;;;;;5072448;28;19909;-76
2022/11/23 14:05:05;;;;;;;;;;;;;;;;;;5073914;28;19908;-78
2022/11/23 14:07:31;;;;;;;;;;;;;;;;;;5073623;28;20003;-75
2022/11/23 14:09:57;;;;;;;;;;;;;;;;;;5073658;28;19966;-77
2022/11/23 14:12:23;;;;;;;;;;;;;;;;;;5072330;28;19909;-76
2022/11/23 14:14:49;;;;;;;;;;;;;;;;;;5073977;28;20437;-76
2022/11/23 14:17:15;;;;;;;;;;;;;;;;;;5073502;28;19909;-77
2022/11/23 14:19:41;;;;;;;;;;;;;;;;;;5073962;28;19915;-77
2022/11/23 14:22:07;;;;;;;;;;;;;;;;;;5073307;28;20006;-77
2022/11/23 14:24:33;;;;;;;;;;;;;;;;;;5072417;28;19915;-75
2022/11/23 14:26:59;;;;;;;;;;;;;;;;;;5072087;28;20323;-76
2022/11/23 14:29:25;;;;;;;;;;;;;;;;;;5072237;28;20439;-76
2022/11/23 14:31:51;;;;;;;;;;;;;;;;;;5072058;28;19908;-76
2022/11/23 14:34:17;;;;;;;;;;;;;;;;;;5071816;28;20003;-75
2022/11/23 14:36:43;;;;;;;;;;;;;;;;;;5072950;28;19908;-76
2022/11/23 14:39:08;;;;;;;;;;;;;;;;;;5072738;28;19908;-76
2022/11/23 14:41:40;;;;;;;;;;;;;;;;;;5072881;28;19913;-76
2022/11/23 14:44:05;;;;;;;;;;;;;;;;;;5073933;28;19947;-77
2022/11/23 14:46:31;;;;;;;;;;;;;;;;;;5072940;28;19908;-77
2022/11/23 14:48:57;;;;;;;;;;;;;;;;;;5073371;28;20384;-77
2022/11/23 14:51:25;;;;;;;;;;;;;;;;;;5073512;28;19920;-77
2022/11/23 14:53:51;;;;;;;;;;;;;;;;;;5073868;28;19908;-77
2022/11/23 14:56:17;;;;;;;;;;;;;;;;;;5072370;28;19908;-76
2022/11/23 14:58:43;;;;;;;;;;;;;;;;;;5072954;28;19908;-76
2022/11/23 15:01:09;;;;;;;;;;;;;;;;;;5073381;28;19912;-77
2022/11/23 15:03:34;;;;;;;;;;;;;;;;;;5071289;28;19909;-77
2022/11/23 15:06:00;;;;;;;;;;;;;;;;;;5073024;28;19967;-78
2022/11/23 15:08:27;;;;;;;;;;;;;;;;;;5072050;28;19915;-78
2022/11/23 15:10:53;;;;;;;;;;;;;;;;;;5068936;28;19967;-72
2022/11/23 15:13:20;;;;;;;;;;;;;;;;;;5072546;28;19916;-74
2022/11/23 15:15:46;;;;;;;;;;;;;;;;;;5071309;28;19912;-76
2022/11/23 15:18:12;;;;;;;;;;;;;;;;;;5073512;28;19916;-76
2022/11/23 15:20:38;;;;;;;;;;;;;;;;;;5071612;28;19909;-76
2022/11/23 15:23:03;;;;;;;;;;;;;;;;;;5072724;28;19912;-77
2022/11/23 15:25:29;;;;;;;;;;;;;;;;;;5071417;28;19952;-78
2022/11/23 15:27:55;;;;;;;;;;;;;;;;;;5072190;28;19909;-78
2022/11/23 15:30:21;;;;;;;;;;;;;;;;;;5069523;28;20573;-78
2022/11/23 15:32:47;;;;;;;;;;;;;;;;;;5055695;28;19951;-76
2022/11/23 15:35:13;;;;;;;;;;;;;;;;;;5056369;28;19963;-76
2022/11/23 15:37:39;;;;;;;;;;;;;;;;;;5054884;28;19909;-77
2022/11/23 15:40:05;;;;;;;;;;;;;;;;;;5057419;28;20426;-77
2022/11/23 15:42:31;;;;;;;;;;;;;;;;;;5058359;28;19912;-78
2022/11/23 15:44:57;;;;;;;;;;;;;;;;;;5056753;28;19909;-76
2022/11/23 15:47:25;;;;;;;;;;;;;;;;;;5058106;28;20369;-77
2022/11/23 15:49:50;;;;;;;;;;;;;;;;;;5078599;28;19916;-75
2022/11/23 15:52:16;;;;;;;;;;;;;;;;;;5060069;28;19908;-78
2022/11/23 15:54:42;;;;;;;;;;;;;;;;;;5059404;28;19959;-77
2022/11/23 15:57:08;;;;;;;;;;;;;;;;;;5056933;28;20299;-76
2022/11/23 15:59:34;;;;;;;;;;;;;;;;;;5057470;28;19916;-77
2022/11/23 16:02:00;;;;;;;;;;;;;;;;;;5058259;28;20350;-77
2022/11/23 16:04:26;;;;;;;;;;;;;;;;;;5076089;28;19912;-77
2022/11/23 16:06:53;;;;;;;;;;;;;;;;;;5076022;28;19917;-76
2022/11/23 16:09:18;;;;;;;;;;;;;;;;;;5075348;28;19995;-77
2022/11/23 16:11:44;;;;;;;;;;;;;;;;;;5074364;28;19952;-76
2022/11/23 16:14:10;;;;;;;;;;;;;;;;;;5075919;28;19934;-77
2022/11/23 16:16:36;;;;;;;;;;;;;;;;;;5075958;28;19935;-77
2022/11/23 16:19:02;;;;;;;;;;;;;;;;;;5076871;28;19912;-77
2022/11/23 16:21:30;;;;;;;;;;;;;;;;;;5077604;28;19908;-77
2022/11/23 16:23:56;;;;;;;;;;;;;;;;;;5077698;28;19930;-75
2022/11/23 16:26:22;;;;;;;;;;;;;;;;;;5077296;28;20384;-76
2022/11/23 16:28:47;;;;;;;;;;;;;;;;;;5077421;28;19916;-77
2022/11/23 16:31:13;;;;;;;;;;;;;;;;;;5095231;28;19912;-77
2022/11/23 16:33:39;;;;;;;;;;;;;;;;;;5093330;28;19916;-76
2022/11/23 16:36:05;;;;;;;;;;;;;;;;;;5095151;28;19954;-76
2022/11/23 16:38:31;;;;;;;;;;;;;;;;;;5095548;28;19953;-76
2022/11/23 16:40:57;;;;;;;;;;;;;;;;;;5076983;28;19908;-76
2022/11/23 16:43:23;;;;;;;;;;;;;;;;;;5092900;28;19912;-76
2022/11/23 16:45:49;;;;;;;;;;;;;;;;;;5077019;28;19915;-76
2022/11/23 16:48:15;;;;;;;;;;;;;;;;;;5094245;28;19908;-77
2022/11/23 16:50:41;;;;;;;;;;;;;;;;;;5076163;28;20019;-77
2022/11/23 16:53:07;;;;;;;;;;;;;;;;;;5095069;28;20344;-76
2022/11/23 16:55:33;;;;;;;;;;;;;;;;;;5094988;28;19908;-78
2022/11/23 16:57:59;;;;;;;;;;;;;;;;;;5076901;28;20421;-76
2022/11/23 17:00:25;;;;;;;;;;;;;;;;;;5076536;28;19915;-77
2022/11/23 17:02:51;;;;;;;;;;;;;;;;;;5076565;28;19931;-77
2022/11/23 17:05:17;;;;;;;;;;;;;;;;;;5094454;28;19908;-76
2022/11/23 17:07:43;;;;;;;;;;;;;;;;;;5076101;28;19962;-77
2022/11/23 17:10:09;;;;;;;;;;;;;;;;;;5094225;28;19919;-77
2022/11/23 17:12:35;;;;;;;;;;;;;;;;;;5076045;28;20483;-76
2022/11/23 17:15:01;;;;;;;;;;;;;;;;;;5087887;28;19916;-76
2022/11/23 17:17:28;;;;;;;;;;;;;;;;;;5073973;28;19909;-76
2022/11/23 17:19:54;;;;;;;;;;;;;;;;;;5073992;28;19970;-76
2022/11/23 17:22:20;;;;;;;;;;;;;;;;;;5055940;28;19947;-76
2022/11/23 17:24:46;;;;;;;;;;;;;;;;;;5055752;28;20380;-76
2022/11/23 17:27:12;;;;;;;;;;;;;;;;;;5073968;28;19915;-77
2022/11/23 17:29:38;;;;;;;;;;;;;;;;;;5055770;28;19923;-76
2022/11/23 17:32:05;;;;;;;;;;;;;;;;;;5055848;28;19908;-76
2022/11/23 17:34:31;;;;;;;;;;;;;;;;;;5073880;28;19912;-76
2022/11/23 17:36:57;;;;;;;;;;;;;;;;;;5073594;28;20383;-76
2022/11/23 17:39:23;;;;;;;;;;;;;;;;;;5073394;28;19909;-76
2022/11/23 17:41:49;;;;;;;;;;;;;;;;;;5073534;28;19953;-76
2022/11/23 17:44:15;;;;;;;;;;;;;;;;;;5073604;28;19961;-76
2022/11/23 17:46:40;;;;;;;;;;;;;;;;;;5055219;28;19964;-76
2022/11/23 17:49:06;;;;;;;;;;;;;;;;;;5073184;28;19913;-76
2022/11/23 17:51:32;;;;;;;;;;;;;;;;;;5055937;28;19961;-77
2022/11/23 17:53:58;;;;;;;;;;;;;;;;;;5055591;28;20396;-77
2022/11/23 17:56:24;;;;;;;;;;;;;;;;;;5073563;28;19912;-76
2022/11/23 17:58:51;;;;;;;;;;;;;;;;;;5073417;28;19920;-77
2022/11/23 18:01:17;;;;;;;;;;;;;;;;;;5073449;28;19954;-76
2022/11/23 18:03:43;;;;;;;;;;;;;;;;;;5073454;28;19908;-79
2022/11/23 18:06:09;;;;;;;;;;;;;;;;;;5055404;28;20447;-76
2022/11/23 18:08:35;;;;;;;;;;;;;;;;;;5073432;28;19909;-76
2022/11/23 18:11:01;;;;;;;;;;;;;;;;;;5055476;28;20376;-76
2022/11/23 18:13:26;;;;;;;;;;;;;;;;;;5055442;28;20295;-75
2022/11/23 18:15:52;;;;;;;;;;;;;;;;;;5055182;28;19909;-76
2022/11/23 18:18:18;;;;;;;;;;;;;;;;;;5073310;28;20265;-75
2022/11/23 18:20:44;;;;;;;;;;;;;;;;;;5073339;28;19934;-77
2022/11/23 18:23:10;;;;;;;;;;;;;;;;;;5072924;28;19912;-75
2022/11/23 18:25:36;;;;;;;;;;;;;;;;;;5072892;28;20384;-76